createdAt,value
2017-12-06T00:01:25.293Z,12.20
2017-12-06T00:03:54.366Z,12.10
2017-12-06T00:06:24.159Z,11.20
2017-12-06T00:08:52.507Z,12.23
2017-12-06T00:11:21.557Z,10.00
2017-12-06T00:13:55.622Z,10.17
2017-12-06T00:16:23.906Z,6.40
2017-12-06T00:18:52.243Z,9.37
2017-12-06T00:21:20.576Z,9.87
2017-12-06T00:23:48.854Z,9.63
2017-12-06T00:26:17.254Z,8.40
2017-12-06T00:28:45.530Z,9.70
2017-12-06T00:31:13.898Z,10.37
2017-12-06T00:33:42.222Z,13.10
2017-12-06T00:36:10.542Z,10.20
2017-12-06T00:38:39.594Z,10.50
2017-12-06T00:41:08.120Z,10.50
2017-12-06T00:43:36.401Z,10.50
2017-12-06T00:46:04.683Z,9.40
2017-12-06T00:48:33.083Z,9.40
2017-12-06T00:51:01.371Z,9.63
2017-12-06T00:53:29.693Z,9.80
2017-12-06T00:55:58.870Z,8.43
2017-12-06T00:58:27.150Z,11.80
2017-12-06T01:00:55.465Z,8.60
2017-12-06T01:03:23.754Z,10.70
2017-12-06T01:05:52.079Z,8.70
2017-12-06T01:08:20.363Z,8.10
2017-12-06T01:10:48.678Z,7.40
2017-12-06T01:13:16.958Z,6.57
2017-12-06T01:15:46.491Z,8.50
2017-12-06T01:18:15.637Z,7.17
2017-12-06T01:20:43.953Z,7.20
2017-12-06T01:23:12.998Z,7.20
2017-12-06T01:25:41.282Z,8.47
2017-12-06T01:28:09.610Z,6.50
2017-12-06T01:30:37.952Z,6.73
2017-12-06T01:33:06.278Z,6.70
2017-12-06T01:35:34.559Z,6.77
2017-12-06T01:38:02.874Z,5.43
2017-12-06T01:40:31.189Z,5.43
2017-12-06T01:43:00.222Z,5.53
2017-12-06T01:45:30.758Z,6.30
2017-12-06T01:47:59.811Z,6.20
2017-12-06T01:50:28.092Z,7.63
2017-12-06T01:52:56.565Z,6.60
2017-12-06T01:55:24.895Z,6.80
2017-12-06T01:57:53.187Z,6.30
2017-12-06T02:00:21.547Z,7.47
2017-12-06T02:02:49.882Z,6.23
2017-12-06T02:05:18.169Z,6.63
2017-12-06T02:07:47.781Z,6.97
2017-12-06T02:10:16.051Z,5.83
2017-12-06T02:12:45.999Z,7.00
2017-12-06T02:15:14.336Z,9.00
2017-12-06T02:17:42.631Z,7.37
2017-12-06T02:20:11.133Z,6.27
2017-12-06T02:22:39.456Z,5.83
2017-12-06T02:25:07.898Z,6.40
2017-12-06T02:27:36.186Z,5.90
2017-12-06T02:30:04.511Z,6.20
2017-12-06T02:32:32.841Z,6.30
2017-12-06T02:35:01.175Z,7.23
2017-12-06T02:37:29.510Z,6.13
2017-12-06T02:40:11.158Z,6.73
2017-12-06T02:42:51.303Z,6.50
2017-12-06T02:45:24.881Z,6.47
2017-12-06T02:47:53.207Z,6.13
2017-12-06T02:50:22.389Z,6.30
2017-12-06T02:52:50.682Z,6.70
2017-12-06T02:55:19.019Z,7.50
2017-12-06T02:57:47.371Z,6.80
2017-12-06T03:00:15.727Z,7.13
2017-12-06T03:02:44.024Z,6.80
2017-12-06T03:05:12.363Z,7.93
2017-12-06T03:07:40.660Z,6.90
2017-12-06T03:10:09.764Z,6.70
2017-12-06T03:12:38.842Z,8.10
2017-12-06T03:15:07.158Z,6.83
2017-12-06T03:17:36.707Z,8.00
2017-12-06T03:20:05.031Z,6.70
2017-12-06T03:22:33.328Z,8.10
2017-12-06T03:25:01.722Z,6.63
2017-12-06T03:27:30.007Z,7.20
2017-12-06T03:30:00.203Z,8.13
2017-12-06T03:32:28.531Z,6.80
2017-12-06T03:34:56.869Z,6.17
2017-12-06T03:37:25.166Z,7.80
2017-12-06T03:39:53.504Z,6.43
2017-12-06T03:42:21.835Z,6.77
2017-12-06T03:44:50.179Z,6.60
2017-12-06T03:47:19.527Z,7.00
2017-12-06T03:49:48.620Z,7.97
2017-12-06T03:52:21.386Z,7.20
2017-12-06T03:54:49.782Z,5.97
2017-12-06T03:57:18.076Z,6.90
2017-12-06T03:59:46.434Z,6.77
2017-12-06T04:02:14.727Z,6.70
2017-12-06T04:04:43.035Z,6.67
2017-12-06T04:07:11.359Z,6.20
2017-12-06T04:09:40.415Z,6.80
2017-12-06T04:12:08.731Z,5.77
2017-12-06T04:14:37.015Z,6.03
2017-12-06T04:17:05.339Z,5.70
2017-12-06T04:19:34.386Z,5.87
2017-12-06T04:22:02.708Z,6.67
2017-12-06T04:24:31.015Z,8.80
2017-12-06T04:27:00.142Z,5.73
2017-12-06T04:29:28.421Z,5.80
2017-12-06T04:31:58.087Z,6.10
2017-12-06T04:34:27.750Z,7.30
2017-12-06T04:36:56.037Z,5.43
2017-12-06T04:39:24.510Z,6.93
2017-12-06T04:41:52.807Z,5.90
2017-12-06T04:44:21.090Z,6.57
2017-12-06T04:46:49.423Z,6.07
2017-12-06T04:49:17.711Z,6.00
2017-12-06T04:51:46.048Z,6.13
2017-12-06T04:54:14.328Z,4.93
2017-12-06T04:56:42.703Z,4.60
2017-12-06T04:59:11.039Z,6.10
2017-12-06T05:01:40.166Z,6.50
2017-12-06T05:04:09.344Z,5.50
2017-12-06T05:06:37.643Z,6.17
2017-12-06T05:09:06.772Z,6.50
2017-12-06T05:11:35.823Z,5.10
2017-12-06T05:14:05.374Z,7.67
2017-12-06T05:16:33.675Z,6.33
2017-12-06T05:19:02.011Z,6.37
2017-12-06T05:21:30.343Z,5.53
2017-12-06T05:23:58.674Z,5.80
2017-12-06T05:26:27.019Z,6.10
2017-12-06T05:28:55.371Z,6.13
2017-12-06T05:31:23.658Z,7.77
2017-12-06T05:33:51.938Z,6.03
2017-12-06T05:36:20.277Z,5.90
2017-12-06T05:38:49.564Z,6.90
2017-12-06T05:41:17.846Z,8.73
2017-12-06T05:43:46.132Z,7.30
2017-12-06T05:46:14.485Z,7.60
2017-12-06T05:48:43.560Z,7.13
2017-12-06T05:51:11.869Z,8.37
2017-12-06T05:53:40.199Z,9.70
2017-12-06T05:56:08.636Z,7.50
2017-12-06T05:58:36.983Z,7.80
2017-12-06T06:01:05.270Z,8.33
2017-12-06T06:03:33.615Z,7.47
2017-12-06T06:06:01.947Z,8.27
2017-12-06T06:08:30.240Z,8.60
2017-12-06T06:10:58.582Z,9.10
2017-12-06T06:13:26.931Z,7.70
2017-12-06T06:15:55.223Z,7.53
2017-12-06T06:18:23.507Z,8.10
2017-12-06T06:20:51.838Z,8.53
2017-12-06T06:23:20.132Z,8.57
2017-12-06T06:25:48.532Z,9.13
2017-12-06T06:28:16.907Z,6.97
2017-12-06T06:30:45.195Z,9.00
2017-12-06T06:33:13.548Z,8.47
2017-12-06T06:35:41.886Z,8.93
2017-12-06T06:38:10.182Z,9.03
2017-12-06T06:40:38.511Z,9.67
2017-12-06T06:43:06.800Z,8.00
2017-12-06T06:45:35.130Z,7.83
2017-12-06T06:48:03.421Z,8.10
2017-12-06T06:50:31.715Z,8.97
2017-12-06T06:53:01.252Z,8.37
2017-12-06T06:55:30.447Z,8.70
2017-12-06T06:57:58.735Z,9.40
2017-12-06T07:00:27.054Z,9.80
2017-12-06T07:02:56.105Z,9.00
2017-12-06T07:05:24.436Z,9.13
2017-12-06T07:07:52.730Z,8.27
2017-12-06T07:10:21.779Z,8.33
2017-12-06T07:12:50.101Z,9.63
2017-12-06T07:15:18.599Z,8.37
2017-12-06T07:17:46.892Z,10.03
2017-12-06T07:20:15.196Z,8.70
2017-12-06T07:22:44.284Z,9.00
2017-12-06T07:25:12.688Z,8.63
2017-12-06T07:27:41.075Z,9.63
2017-12-06T07:30:09.723Z,9.53
2017-12-06T07:32:38.055Z,10.20
2017-12-06T07:35:06.348Z,8.60
2017-12-06T07:37:34.679Z,8.87
2017-12-06T07:40:03.136Z,8.23
2017-12-06T07:42:32.191Z,9.73
2017-12-06T07:45:00.471Z,9.50
2017-12-06T07:47:28.805Z,10.70
2017-12-06T07:49:57.310Z,9.93
2017-12-06T07:52:26.358Z,9.03
2017-12-06T07:54:54.647Z,12.20
2017-12-06T07:57:22.998Z,9.40
2017-12-06T07:59:51.279Z,9.27
2017-12-06T08:02:19.606Z,9.60
2017-12-06T08:04:48.669Z,10.17
2017-12-06T08:07:16.955Z,9.07
2017-12-06T08:09:45.338Z,8.13
2017-12-06T08:12:13.632Z,9.60
2017-12-06T08:14:41.956Z,9.37
2017-12-06T08:17:11.019Z,9.23
2017-12-06T08:19:39.368Z,8.90
2017-12-06T08:22:08.471Z,10.13
2017-12-06T08:24:37.528Z,10.83
2017-12-06T08:27:05.935Z,9.17
2017-12-06T08:29:35.128Z,10.37
2017-12-06T08:32:03.430Z,10.50
2017-12-06T08:34:31.767Z,11.30
2017-12-06T08:37:00.111Z,11.60
2017-12-06T08:39:28.450Z,10.33
2017-12-06T08:41:56.754Z,10.20
2017-12-06T08:44:25.095Z,11.03
2017-12-06T08:46:53.431Z,9.90
2017-12-06T08:49:21.726Z,10.93
2017-12-06T08:51:50.062Z,11.47
2017-12-06T08:54:18.358Z,12.13
2017-12-06T08:56:46.702Z,10.77
2017-12-06T08:59:15.035Z,14.13
2017-12-06T09:01:43.327Z,13.13
2017-12-06T09:04:11.732Z,14.40
2017-12-06T09:06:40.832Z,14.37
2017-12-06T09:09:09.139Z,13.67
2017-12-06T09:11:38.196Z,12.20
2017-12-06T09:14:06.607Z,14.30
2017-12-06T09:16:34.908Z,13.17
2017-12-06T09:19:03.393Z,12.80
2017-12-06T09:21:31.686Z,16.83
2017-12-06T09:24:00.024Z,13.50
2017-12-06T09:26:28.391Z,16.33
2017-12-06T09:28:57.484Z,13.50
2017-12-06T09:31:25.782Z,13.70
2017-12-06T09:33:55.082Z,13.67
2017-12-06T09:36:23.379Z,13.93
2017-12-06T09:38:51.689Z,13.93
2017-12-06T09:41:20.019Z,13.20
2017-12-06T09:43:48.361Z,13.93
2017-12-06T09:46:17.419Z,13.73
2017-12-06T09:48:45.835Z,14.87
2017-12-06T09:51:14.149Z,16.07
2017-12-06T09:53:43.212Z,14.27
2017-12-06T09:56:11.572Z,12.93
2017-12-06T09:58:39.906Z,14.77
2017-12-06T10:01:08.247Z,12.70
2017-12-06T10:03:36.538Z,13.60
2017-12-06T10:06:05.078Z,13.70
2017-12-06T10:08:33.375Z,12.47
2017-12-06T10:11:02.430Z,13.53
2017-12-06T10:13:30.771Z,12.20
2017-12-06T10:15:59.127Z,12.90
2017-12-06T10:18:27.665Z,14.07
2017-12-06T10:20:55.990Z,11.33
2017-12-06T10:23:24.288Z,13.23
2017-12-06T10:25:52.831Z,11.60
2017-12-06T10:28:21.135Z,12.00
2017-12-06T10:30:50.191Z,11.10
2017-12-06T10:33:18.556Z,11.33
2017-12-06T10:35:47.599Z,11.00
2017-12-06T10:38:15.931Z,12.80
2017-12-06T10:40:45.000Z,11.80
2017-12-06T10:43:13.350Z,10.23
2017-12-06T10:45:41.659Z,12.80
2017-12-06T10:48:09.948Z,12.47
2017-12-06T10:50:38.280Z,12.13
2017-12-06T10:53:06.664Z,11.60
2017-12-06T10:55:36.494Z,11.77
2017-12-06T10:58:04.791Z,10.63
2017-12-06T11:00:33.120Z,11.67
2017-12-06T11:03:01.411Z,11.07
2017-12-06T11:05:29.761Z,9.30
2017-12-06T11:07:58.104Z,10.63
2017-12-06T11:10:26.439Z,11.33
2017-12-06T11:12:54.780Z,10.10
2017-12-06T11:15:24.339Z,10.20
2017-12-06T11:17:52.635Z,10.23
2017-12-06T11:20:20.969Z,9.63
2017-12-06T11:22:49.298Z,9.17
2017-12-06T11:25:17.636Z,9.70
2017-12-06T11:27:45.927Z,10.40
2017-12-06T11:30:14.283Z,9.23
2017-12-06T11:32:42.575Z,10.40
2017-12-06T11:35:11.639Z,11.00
2017-12-06T11:37:39.990Z,9.80
2017-12-06T11:40:08.287Z,8.97
2017-12-06T11:42:36.616Z,8.80
2017-12-06T11:45:04.907Z,9.50
2017-12-06T11:47:33.318Z,8.83
2017-12-06T11:50:01.611Z,8.63
2017-12-06T11:52:30.003Z,10.27
2017-12-06T11:54:58.326Z,8.90
2017-12-06T11:57:26.631Z,10.13
2017-12-06T11:59:54.962Z,9.10
2017-12-06T12:02:23.290Z,8.70
2017-12-06T12:04:52.314Z,9.07
2017-12-06T12:07:20.657Z,8.40
2017-12-06T12:09:48.967Z,8.40
2017-12-06T12:12:18.072Z,8.20
2017-12-06T12:14:47.262Z,8.60
2017-12-06T12:17:15.564Z,9.20
2017-12-06T12:19:45.603Z,9.67
2017-12-06T12:22:14.678Z,8.93
2017-12-06T12:24:42.993Z,9.40
2017-12-06T12:27:11.323Z,8.93
2017-12-06T12:29:39.822Z,7.60
2017-12-06T12:32:08.095Z,9.27
2017-12-06T12:34:36.430Z,7.90
2017-12-06T12:37:04.735Z,8.90
2017-12-06T12:39:33.061Z,8.63
2017-12-06T12:42:01.411Z,9.20
2017-12-06T12:44:29.748Z,10.10
2017-12-06T12:46:58.099Z,8.43
2017-12-06T12:49:26.441Z,8.47
2017-12-06T12:51:54.815Z,9.23
2017-12-06T12:54:23.160Z,9.50
2017-12-06T12:56:51.440Z,9.50
2017-12-06T12:59:19.849Z,9.57
2017-12-06T13:01:48.138Z,8.33
2017-12-06T13:04:16.415Z,8.23
2017-12-06T13:06:46.355Z,9.43
2017-12-06T13:09:16.216Z,8.17
2017-12-06T13:11:44.513Z,10.50
2017-12-06T13:14:12.803Z,9.50
2017-12-06T13:16:41.132Z,9.60
2017-12-06T13:19:09.530Z,9.97
2017-12-06T13:21:37.823Z,11.20
2017-12-06T13:24:06.153Z,8.60
2017-12-06T13:26:34.449Z,10.63
2017-12-06T13:29:02.888Z,8.17
2017-12-06T13:31:31.174Z,8.57
2017-12-06T13:33:59.492Z,10.40
2017-12-06T13:36:27.863Z,10.50
2017-12-06T13:38:56.243Z,9.70
2017-12-06T13:41:24.567Z,8.83
2017-12-06T13:43:53.615Z,10.47
2017-12-06T13:46:21.959Z,8.07
2017-12-06T13:48:50.341Z,9.00
2017-12-06T13:51:18.687Z,8.77
2017-12-06T13:53:47.035Z,10.33
2017-12-06T13:56:16.151Z,8.20
2017-12-06T13:58:45.210Z,7.87
2017-12-06T14:01:13.520Z,8.33
2017-12-06T14:03:41.852Z,9.10
2017-12-06T14:06:10.203Z,6.83
2017-12-06T14:08:38.490Z,8.23
2017-12-06T14:11:06.778Z,9.10
2017-12-06T14:13:36.689Z,9.63
2017-12-06T14:16:04.993Z,8.63
2017-12-06T14:18:33.331Z,9.93
2017-12-06T14:21:01.622Z,8.67
2017-12-06T14:23:29.964Z,8.83
2017-12-06T14:25:58.301Z,7.77
2017-12-06T14:28:27.868Z,9.80
2017-12-06T14:30:56.162Z,8.20
2017-12-06T14:33:24.452Z,8.50
2017-12-06T14:35:52.792Z,7.80
2017-12-06T14:38:21.124Z,8.33
2017-12-06T14:40:49.483Z,8.77
2017-12-06T14:43:17.763Z,9.30
2017-12-06T14:45:46.056Z,8.10
2017-12-06T14:48:14.479Z,8.43
2017-12-06T14:50:42.836Z,7.70
2017-12-06T14:53:11.179Z,7.10
2017-12-06T14:55:40.980Z,7.47
2017-12-06T14:58:09.322Z,8.80
2017-12-06T15:00:37.618Z,7.40
2017-12-06T15:03:05.948Z,7.43
2017-12-06T15:05:34.230Z,7.37
2017-12-06T15:08:02.570Z,6.10
2017-12-06T15:10:31.625Z,7.57
2017-12-06T15:12:59.943Z,6.47
2017-12-06T15:15:28.276Z,7.77
2017-12-06T15:17:57.853Z,6.80
2017-12-06T15:20:27.646Z,5.87
2017-12-06T15:22:55.964Z,5.60
2017-12-06T15:25:24.365Z,5.50
2017-12-06T15:27:52.643Z,6.53
2017-12-06T15:30:20.956Z,8.23
2017-12-06T15:32:51.280Z,5.40
2017-12-06T15:35:19.600Z,6.10
2017-12-06T15:37:47.896Z,4.40
2017-12-06T15:40:16.226Z,5.93
2017-12-06T15:42:44.514Z,5.37
2017-12-06T15:45:12.888Z,5.63
2017-12-06T15:47:41.231Z,4.70
2017-12-06T15:50:10.294Z,5.77
2017-12-06T15:52:38.582Z,5.60
2017-12-06T15:55:06.936Z,4.90
2017-12-06T15:57:35.224Z,5.33
2017-12-06T16:00:04.276Z,5.20
2017-12-06T16:02:32.597Z,5.13
2017-12-06T16:05:00.907Z,5.50
2017-12-06T16:07:30.015Z,4.63
2017-12-06T16:09:59.075Z,4.97
2017-12-06T16:12:27.363Z,5.03
2017-12-06T16:14:55.769Z,5.50
2017-12-06T16:17:24.056Z,5.30
2017-12-06T16:19:52.379Z,6.50
2017-12-06T16:22:21.428Z,5.63
2017-12-06T16:24:49.771Z,6.10
2017-12-06T16:27:18.900Z,5.90
2017-12-06T16:29:47.331Z,5.50
2017-12-06T16:32:15.618Z,6.13
2017-12-06T16:34:55.915Z,6.77
2017-12-06T16:37:29.830Z,5.70
2017-12-06T16:39:58.171Z,7.00
2017-12-06T16:42:26.526Z,5.13
2017-12-06T16:44:55.635Z,6.83
2017-12-06T16:47:24.694Z,6.67
2017-12-06T16:49:53.011Z,5.47
2017-12-06T16:52:21.300Z,6.10
2017-12-06T16:54:49.631Z,5.93
2017-12-06T16:57:17.927Z,6.73
2017-12-06T16:59:46.213Z,6.40
2017-12-06T17:02:14.559Z,5.00
2017-12-06T17:04:42.911Z,6.20
2017-12-06T17:07:11.209Z,6.27
2017-12-06T17:09:39.540Z,5.00
2017-12-06T17:12:07.870Z,5.30
2017-12-06T17:14:36.161Z,8.07
2017-12-06T17:17:04.892Z,5.70
2017-12-06T17:19:33.696Z,4.20
2017-12-06T17:22:03.281Z,5.17
2017-12-06T17:24:32.114Z,5.20
2017-12-06T17:27:00.543Z,4.70
2017-12-06T17:29:41.463Z,5.30
2017-12-06T17:32:09.952Z,5.97
2017-12-06T17:34:38.283Z,5.30
2017-12-06T17:37:06.566Z,5.50
2017-12-06T17:39:34.844Z,4.30
2017-12-06T17:42:03.158Z,4.87
2017-12-06T17:44:31.492Z,5.17
2017-12-06T17:46:59.783Z,3.60
2017-12-06T17:49:28.114Z,3.90
2017-12-06T17:51:56.520Z,5.00
2017-12-06T17:54:24.872Z,4.90
2017-12-06T17:56:53.161Z,3.10
2017-12-06T17:59:21.439Z,4.60
2017-12-06T18:01:49.789Z,4.90
2017-12-06T18:04:18.095Z,4.37
2017-12-06T18:06:47.154Z,4.30
2017-12-06T18:09:15.476Z,4.27
2017-12-06T18:11:43.810Z,4.20
2017-12-06T18:14:12.100Z,4.50
2017-12-06T18:16:40.386Z,4.40
2017-12-06T18:19:08.742Z,3.70
2017-12-06T18:21:37.796Z,4.27
2017-12-06T18:24:06.083Z,3.43
2017-12-06T18:26:34.414Z,6.43
2017-12-06T18:29:02.747Z,3.83
2017-12-06T18:31:31.071Z,4.03
2017-12-06T18:34:00.150Z,5.17
2017-12-06T18:36:28.447Z,3.87
2017-12-06T18:38:56.841Z,4.40
2017-12-06T18:41:25.124Z,5.40
2017-12-06T18:43:53.399Z,4.00
2017-12-06T18:46:21.724Z,4.70
2017-12-06T18:48:50.008Z,3.73
2017-12-06T18:51:18.487Z,4.30
2017-12-06T18:53:46.727Z,4.17
2017-12-06T18:56:15.021Z,4.20
2017-12-06T18:58:44.117Z,3.93
2017-12-06T19:01:12.467Z,4.73
2017-12-06T19:03:40.988Z,3.57
2017-12-06T19:06:09.279Z,4.33
2017-12-06T19:08:39.067Z,5.37
2017-12-06T19:11:08.605Z,4.50
2017-12-06T19:13:36.893Z,4.10
2017-12-06T19:16:05.239Z,3.70
2017-12-06T19:18:33.639Z,4.33
2017-12-06T19:21:01.928Z,4.37
2017-12-06T19:23:30.221Z,3.80
2017-12-06T19:25:58.569Z,4.10
2017-12-06T19:28:27.797Z,5.33
2017-12-06T19:30:57.083Z,4.73
2017-12-06T19:33:25.570Z,3.90
2017-12-06T19:35:53.842Z,4.27
2017-12-06T19:38:22.183Z,4.00
2017-12-06T19:40:51.263Z,4.20
2017-12-06T19:43:19.591Z,4.30
2017-12-06T19:45:48.641Z,4.20
2017-12-06T19:48:16.963Z,4.70
2017-12-06T19:50:45.659Z,5.53
2017-12-06T19:53:13.943Z,3.90
2017-12-06T19:55:42.447Z,4.30
2017-12-06T19:58:10.787Z,4.63
2017-12-06T20:00:39.111Z,4.17
2017-12-06T20:03:07.440Z,4.90
2017-12-06T20:05:36.483Z,4.57
2017-12-06T20:08:04.827Z,3.77
2017-12-06T20:10:33.886Z,6.03
2017-12-06T20:13:02.168Z,4.90
2017-12-06T20:15:30.507Z,4.10
2017-12-06T20:17:59.564Z,4.60
2017-12-06T20:20:27.855Z,3.83
2017-12-06T20:22:57.150Z,5.90
2017-12-06T20:25:25.484Z,4.20
2017-12-06T20:27:53.761Z,3.93
2017-12-06T20:30:22.050Z,4.17
2017-12-06T20:32:50.418Z,4.80
2017-12-06T20:35:18.714Z,3.60
2017-12-06T20:37:46.995Z,4.77
2017-12-06T20:40:16.589Z,4.23
2017-12-06T20:42:44.887Z,4.37
2017-12-06T20:45:13.181Z,3.83
2017-12-06T20:47:41.539Z,3.30
2017-12-06T20:50:10.653Z,3.80
2017-12-06T20:52:39.714Z,4.90
2017-12-06T20:55:07.999Z,3.53
2017-12-06T20:57:36.391Z,3.37
2017-12-06T21:00:04.676Z,3.70
2017-12-06T21:02:32.954Z,4.00
2017-12-06T21:05:01.284Z,4.80
2017-12-06T21:07:29.562Z,3.30
2017-12-06T21:09:58.674Z,2.90
2017-12-06T21:12:26.989Z,3.13
2017-12-06T21:14:56.196Z,4.23
2017-12-06T21:17:24.491Z,5.70
2017-12-06T21:19:55.129Z,3.70
2017-12-06T21:22:24.004Z,4.37
2017-12-06T21:24:57.006Z,3.63
2017-12-06T21:27:27.154Z,3.53
2017-12-06T21:29:58.370Z,4.37
2017-12-06T21:32:27.628Z,3.53
2017-12-06T21:34:56.892Z,5.07
2017-12-06T21:37:25.423Z,4.07
2017-12-06T21:39:54.046Z,4.77
2017-12-06T21:42:22.712Z,3.40
2017-12-06T21:44:51.821Z,3.60
2017-12-06T21:47:22.255Z,4.40
2017-12-06T21:49:51.568Z,4.30
2017-12-06T21:52:21.108Z,4.73
2017-12-06T21:54:49.391Z,3.50
2017-12-06T21:57:17.872Z,4.00
2017-12-06T21:59:46.190Z,3.20
2017-12-06T22:02:14.551Z,4.13
2017-12-06T22:04:42.866Z,4.80
2017-12-06T22:07:12.218Z,4.00
2017-12-06T22:09:40.516Z,4.00
2017-12-06T22:12:08.848Z,3.70
2017-12-06T22:14:37.166Z,4.17
2017-12-06T22:17:06.220Z,3.80
2017-12-06T22:19:34.546Z,5.47
2017-12-06T22:22:03.608Z,4.17
2017-12-06T22:24:34.057Z,2.93
2017-12-06T22:27:03.321Z,3.60
2017-12-06T22:29:32.370Z,4.43
2017-12-06T22:32:00.795Z,3.40
2017-12-06T22:34:29.094Z,3.80
2017-12-06T22:36:57.371Z,4.30
2017-12-06T22:39:25.707Z,3.00
2017-12-06T22:41:54.007Z,4.03
2017-12-06T22:44:22.305Z,3.00
2017-12-06T22:46:50.639Z,3.47
2017-12-06T22:49:18.919Z,3.57
2017-12-06T22:51:47.247Z,3.83
2017-12-06T22:54:15.559Z,3.33
2017-12-06T22:56:43.852Z,3.97
2017-12-06T22:59:12.190Z,3.83
2017-12-06T23:01:41.295Z,3.00
2017-12-06T23:04:09.646Z,3.70
2017-12-06T23:06:38.158Z,3.73
2017-12-06T23:09:06.439Z,3.47
2017-12-06T23:11:34.735Z,3.03
2017-12-06T23:14:03.191Z,3.27
2017-12-06T23:16:31.470Z,3.20
2017-12-06T23:18:59.760Z,2.77
2017-12-06T23:21:28.090Z,3.20
2017-12-06T23:23:56.394Z,2.93
2017-12-06T23:26:24.746Z,3.93
2017-12-06T23:28:53.063Z,3.90
2017-12-06T23:31:21.356Z,2.87
2017-12-06T23:33:49.687Z,3.07
2017-12-06T23:36:18.963Z,3.53
2017-12-06T23:38:47.242Z,3.50
2017-12-06T23:41:15.528Z,2.83
2017-12-06T23:43:43.847Z,3.90
2017-12-06T23:46:12.904Z,2.87
2017-12-06T23:48:41.435Z,3.30
2017-12-06T23:51:09.731Z,4.00
2017-12-06T23:53:38.120Z,3.53
2017-12-06T23:56:06.430Z,4.20
2017-12-06T23:58:35.528Z,4.43
